sensor_id;sensor_type;location;lat;lon;timestamp;pressure;altitude;pressure_sealevel;temperature;humidity
39789;BME280;25478;42.626;23.320;2023-08-17T00:01:23;93277.66;;;21.82;61.18
39789;BME280;25478;42.626;23.320;2023-08-17T00:03:48;93291.91;;;21.70;63.47
39789;BME280;25478;42.626;23.320;2023-08-17T00:06:14;93286.91;;;21.59;64.77
39789;BME280;25478;42.626;23.320;2023-08-17T00:08:39;93283.44;;;21.49;64.68
39789;BME280;25478;42.626;23.320;2023-08-17T00:11:05;93266.97;;;21.29;64.34
39789;BME280;25478;42.626;23.320;2023-08-17T00:13:30;93286.22;;;21.37;63.34
39789;BME280;25478;42.626;23.320;2023-08-17T00:15:56;93275.75;;;21.29;62.91
39789;BME280;25478;42.626;23.320;2023-08-17T00:18:21;93279.25;;;21.26;62.39
39789;BME280;25478;42.626;23.320;2023-08-17T00:20:47;93272.09;;;21.23;61.94
39789;BME280;25478;42.626;23.320;2023-08-17T00:23:13;93280.44;;;21.25;61.19
39789;BME280;25478;42.626;23.320;2023-08-17T00:25:39;93280.66;;;21.31;60.81
39789;BME280;25478;42.626;23.320;2023-08-17T00:28:05;93260.50;;;21.26;60.74
39789;BME280;25478;42.626;23.320;2023-08-17T00:30:31;93274.81;;;21.45;60.29
39789;BME280;25478;42.626;23.320;2023-08-17T00:32:56;93273.47;;;21.50;60.44
39789;BME280;25478;42.626;23.320;2023-08-17T00:35:22;93283.34;;;21.53;60.30
39789;BME280;25478;42.626;23.320;2023-08-17T00:37:48;93274.09;;;21.54;60.34
39789;BME280;25478;42.626;23.320;2023-08-17T00:40:13;93275.16;;;21.56;60.66
39789;BME280;25478;42.626;23.320;2023-08-17T00:42:39;93273.09;;;21.60;60.70
39789;BME280;25478;42.626;23.320;2023-08-17T00:45:05;93273.84;;;21.61;60.94
39789;BME280;25478;42.626;23.320;2023-08-17T00:47:31;93275.00;;;21.60;61.16
39789;BME280;25478;42.626;23.320;2023-08-17T00:49:57;93267.72;;;21.60;61.23
39789;BME280;25478;42.626;23.320;2023-08-17T00:52:23;93270.09;;;21.58;61.62
39789;BME280;25478;42.626;23.320;2023-08-17T00:54:49;93268.59;;;21.57;61.98
39789;BME280;25478;42.626;23.320;2023-08-17T00:57:14;93262.50;;;21.57;62.11
39789;BME280;25478;42.626;23.320;2023-08-17T00:59:40;93259.22;;;21.53;62.37
39789;BME280;25478;42.626;23.320;2023-08-17T01:02:06;93264.00;;;21.58;62.49
39789;BME280;25478;42.626;23.320;2023-08-17T01:04:35;93267.13;;;21.56;62.41
39789;BME280;25478;42.626;23.320;2023-08-17T01:07:01;93264.25;;;21.51;62.43
39789;BME280;25478;42.626;23.320;2023-08-17T01:09:26;93266.06;;;21.54;62.18
39789;BME280;25478;42.626;23.320;2023-08-17T01:14:46;93243.84;;;21.44;62.67
39789;BME280;25478;42.626;23.320;2023-08-17T01:17:17;93269.50;;;21.54;62.90
39789;BME280;25478;42.626;23.320;2023-08-17T01:19:44;93269.16;;;21.52;62.67
39789;BME280;25478;42.626;23.320;2023-08-17T01:22:14;93262.66;;;21.53;62.91
39789;BME280;25478;42.626;23.320;2023-08-17T01:24:43;93255.78;;;21.52;62.69
39789;BME280;25478;42.626;23.320;2023-08-17T01:27:08;93258.34;;;21.56;62.47
39789;BME280;25478;42.626;23.320;2023-08-17T01:29:35;93250.31;;;21.56;61.77
39789;BME280;25478;42.626;23.320;2023-08-17T01:34:39;93254.16;;;21.55;60.85
39789;BME280;25478;42.626;23.320;2023-08-17T01:37:07;93232.38;;;21.44;60.35
39789;BME280;25478;42.626;23.320;2023-08-17T01:39:37;93229.53;;;21.38;59.82
39789;BME280;25478;42.626;23.320;2023-08-17T01:42:05;93257.41;;;21.50;59.58
39789;BME280;25478;42.626;23.320;2023-08-17T01:44:32;93242.19;;;21.38;59.27
39789;BME280;25478;42.626;23.320;2023-08-17T01:46:57;93245.47;;;21.42;59.18
39789;BME280;25478;42.626;23.320;2023-08-17T01:49:23;93250.81;;;21.42;58.85
39789;BME280;25478;42.626;23.320;2023-08-17T01:51:48;93247.84;;;21.40;58.76
39789;BME280;25478;42.626;23.320;2023-08-17T01:54:14;93236.56;;;21.23;60.25
39789;BME280;25478;42.626;23.320;2023-08-17T01:56:40;93254.56;;;21.22;61.14
39789;BME280;25478;42.626;23.320;2023-08-17T01:59:05;93250.78;;;21.11;62.03
39789;BME280;25478;42.626;23.320;2023-08-17T02:01:31;93252.63;;;21.01;62.07
39789;BME280;25478;42.626;23.320;2023-08-17T02:03:56;93249.13;;;20.91;62.09
39789;BME280;25478;42.626;23.320;2023-08-17T02:06:22;93241.59;;;20.77;62.46
39789;BME280;25478;42.626;23.320;2023-08-17T02:08:47;93246.31;;;20.73;63.85
39789;BME280;25478;42.626;23.320;2023-08-17T02:11:13;93253.22;;;20.61;64.23
39789;BME280;25478;42.626;23.320;2023-08-17T02:13:39;93250.13;;;20.50;64.86
39789;BME280;25478;42.626;23.320;2023-08-17T02:16:04;93255.38;;;20.41;65.72
39789;BME280;25478;42.626;23.320;2023-08-17T02:18:30;93242.97;;;20.34;65.75
39789;BME280;25478;42.626;23.320;2023-08-17T02:20:58;93246.63;;;20.28;64.94
39789;BME280;25478;42.626;23.320;2023-08-17T02:23:23;93241.81;;;20.22;64.89
39789;BME280;25478;42.626;23.320;2023-08-17T02:25:50;93248.13;;;20.16;65.03
39789;BME280;25478;42.626;23.320;2023-08-17T02:28:16;93244.09;;;20.11;64.27
39789;BME280;25478;42.626;23.320;2023-08-17T02:30:41;93238.00;;;20.11;62.00
39789;BME280;25478;42.626;23.320;2023-08-17T02:33:07;93235.00;;;20.09;61.33
39789;BME280;25478;42.626;23.320;2023-08-17T02:35:33;93239.91;;;20.23;60.34
39789;BME280;25478;42.626;23.320;2023-08-17T02:37:58;93240.84;;;20.29;58.81
39789;BME280;25478;42.626;23.320;2023-08-17T02:40:24;93222.56;;;20.28;58.42
39789;BME280;25478;42.626;23.320;2023-08-17T02:42:50;93238.13;;;20.42;57.77
39789;BME280;25478;42.626;23.320;2023-08-17T02:45:15;93223.09;;;20.35;56.95
39789;BME280;25478;42.626;23.320;2023-08-17T02:47:40;93234.81;;;20.50;56.29
39789;BME280;25478;42.626;23.320;2023-08-17T02:50:06;93232.34;;;20.56;55.69
39789;BME280;25478;42.626;23.320;2023-08-17T02:52:32;93216.09;;;20.50;55.31
39789;BME280;25478;42.626;23.320;2023-08-17T02:54:57;93229.88;;;20.62;54.95
39789;BME280;25478;42.626;23.320;2023-08-17T02:57:23;93228.25;;;20.64;54.72
39789;BME280;25478;42.626;23.320;2023-08-17T02:59:49;93232.44;;;20.65;54.76
39789;BME280;25478;42.626;23.320;2023-08-17T03:02:14;93235.09;;;20.65;54.49
39789;BME280;25478;42.626;23.320;2023-08-17T03:04:40;93225.28;;;20.62;54.42
39789;BME280;25478;42.626;23.320;2023-08-17T03:07:06;93235.00;;;20.69;54.32
39789;BME280;25478;42.626;23.320;2023-08-17T03:09:31;93227.59;;;20.73;54.31
39789;BME280;25478;42.626;23.320;2023-08-17T03:11:57;93224.59;;;20.71;54.38
39789;BME280;25478;42.626;23.320;2023-08-17T03:14:22;93231.22;;;20.79;54.17
39789;BME280;25478;42.626;23.320;2023-08-17T03:16:48;93231.97;;;20.79;54.25
39789;BME280;25478;42.626;23.320;2023-08-17T03:19:14;93234.50;;;20.83;54.42
39789;BME280;25478;42.626;23.320;2023-08-17T03:21:41;93227.78;;;20.78;54.50
39789;BME280;25478;42.626;23.320;2023-08-17T03:24:08;93236.00;;;20.84;54.92
39789;BME280;25478;42.626;23.320;2023-08-17T03:26:34;93235.25;;;20.84;54.94
39789;BME280;25478;42.626;23.320;2023-08-17T03:29:00;93237.63;;;20.82;55.46
39789;BME280;25478;42.626;23.320;2023-08-17T03:31:26;93234.63;;;20.79;55.63
39789;BME280;25478;42.626;23.320;2023-08-17T03:33:51;93226.72;;;20.76;55.82
39789;BME280;25478;42.626;23.320;2023-08-17T03:36:17;93239.25;;;20.79;55.88
39789;BME280;25478;42.626;23.320;2023-08-17T03:38:43;93228.63;;;20.75;56.18
39789;BME280;25478;42.626;23.320;2023-08-17T03:41:09;93237.09;;;20.74;56.40
39789;BME280;25478;42.626;23.320;2023-08-17T03:43:35;93238.28;;;20.73;56.69
39789;BME280;25478;42.626;23.320;2023-08-17T03:46:01;93237.09;;;20.74;56.68
39789;BME280;25478;42.626;23.320;2023-08-17T03:48:27;93241.72;;;20.73;56.76
39789;BME280;25478;42.626;23.320;2023-08-17T03:50:54;93239.34;;;20.75;57.06
39789;BME280;25478;42.626;23.320;2023-08-17T03:53:20;93242.34;;;20.77;57.33
39789;BME280;25478;42.626;23.320;2023-08-17T03:55:49;93246.06;;;20.80;57.34
39789;BME280;25478;42.626;23.320;2023-08-17T03:58:15;93250.56;;;20.83;57.50
39789;BME280;25478;42.626;23.320;2023-08-17T04:00:41;93245.78;;;20.78;57.83
39789;BME280;25478;42.626;23.320;2023-08-17T04:03:08;93260.06;;;20.84;58.30
39789;BME280;25478;42.626;23.320;2023-08-17T04:05:34;93253.88;;;20.87;58.40
39789;BME280;25478;42.626;23.320;2023-08-17T04:08:00;93255.66;;;20.90;58.55
39789;BME280;25478;42.626;23.320;2023-08-17T04:10:28;93249.44;;;20.93;58.82
39789;BME280;25478;42.626;23.320;2023-08-17T04:12:54;93258.97;;;20.94;59.69
39789;BME280;25478;42.626;23.320;2023-08-17T04:15:19;93263.16;;;20.95;59.50
39789;BME280;25478;42.626;23.320;2023-08-17T04:17:45;93260.03;;;20.97;59.65
39789;BME280;25478;42.626;23.320;2023-08-17T04:20:11;93260.03;;;20.97;59.53
39789;BME280;25478;42.626;23.320;2023-08-17T04:22:36;93254.53;;;21.00;59.68
39789;BME280;25478;42.626;23.320;2023-08-17T04:25:02;93254.00;;;21.05;59.77
39789;BME280;25478;42.626;23.320;2023-08-17T04:27:27;93256.88;;;21.11;60.04
39789;BME280;25478;42.626;23.320;2023-08-17T04:29:53;93258.22;;;21.16;60.37
39789;BME280;25478;42.626;23.320;2023-08-17T04:32:19;93253.50;;;21.20;60.48
39789;BME280;25478;42.626;23.320;2023-08-17T04:34:45;93255.16;;;21.26;60.41
39789;BME280;25478;42.626;23.320;2023-08-17T04:37:14;93259.53;;;21.33;60.69
39789;BME280;25478;42.626;23.320;2023-08-17T04:39:39;93255.13;;;21.39;60.35
39789;BME280;25478;42.626;23.320;2023-08-17T04:42:06;93257.25;;;21.44;60.62
39789;BME280;25478;42.626;23.320;2023-08-17T04:44:33;93258.03;;;21.54;60.88
39789;BME280;25478;42.626;23.320;2023-08-17T04:46:59;93247.06;;;21.61;60.95
39789;BME280;25478;42.626;23.320;2023-08-17T04:49:24;93252.03;;;21.72;60.78
39789;BME280;25478;42.626;23.320;2023-08-17T04:51:52;93251.16;;;21.84;60.29
39789;BME280;25478;42.626;23.320;2023-08-17T04:54:18;93254.34;;;22.01;59.38
39789;BME280;25478;42.626;23.320;2023-08-17T04:56:43;93244.59;;;22.16;59.11
39789;BME280;25478;42.626;23.320;2023-08-17T04:59:09;93247.19;;;22.38;58.88
39789;BME280;25478;42.626;23.320;2023-08-17T05:01:35;93249.72;;;22.60;57.41
39789;BME280;25478;42.626;23.320;2023-08-17T05:04:01;93199.22;;;22.49;56.39
39789;BME280;25478;42.626;23.320;2023-08-17T05:06:30;93256.94;;;23.09;55.83
39789;BME280;25478;42.626;23.320;2023-08-17T05:08:56;93241.22;;;23.35;54.47
39789;BME280;25478;42.626;23.320;2023-08-17T05:11:23;93247.00;;;23.61;53.24
39789;BME280;25478;42.626;23.320;2023-08-17T05:13:49;93248.56;;;23.85;52.14
39789;BME280;25478;42.626;23.320;2023-08-17T05:16:14;93242.03;;;24.10;46.05
39789;BME280;25478;42.626;23.320;2023-08-17T05:18:40;93241.47;;;24.39;45.90
39789;BME280;25478;42.626;23.320;2023-08-17T05:21:07;93248.03;;;24.62;44.49
39789;BME280;25478;42.626;23.320;2023-08-17T05:23:32;93246.78;;;24.87;44.27
39789;BME280;25478;42.626;23.320;2023-08-17T05:25:58;93252.16;;;25.11;43.06
39789;BME280;25478;42.626;23.320;2023-08-17T05:28:23;93241.06;;;25.33;41.57
39789;BME280;25478;42.626;23.320;2023-08-17T05:30:49;93245.03;;;25.52;41.20
39789;BME280;25478;42.626;23.320;2023-08-17T05:33:15;93247.66;;;25.76;42.64
39789;BME280;25478;42.626;23.320;2023-08-17T05:35:40;93239.25;;;25.89;43.75
39789;BME280;25478;42.626;23.320;2023-08-17T05:38:08;93252.22;;;26.20;43.77
39789;BME280;25478;42.626;23.320;2023-08-17T05:40:33;93250.69;;;26.34;43.89
39789;BME280;25478;42.626;23.320;2023-08-17T05:42:59;93254.56;;;26.48;43.75
39789;BME280;25478;42.626;23.320;2023-08-17T05:45:25;93253.53;;;26.60;43.06
39789;BME280;25478;42.626;23.320;2023-08-17T05:47:51;93255.88;;;26.73;42.63
39789;BME280;25478;42.626;23.320;2023-08-17T05:50:17;93247.03;;;26.72;41.97
39789;BME280;25478;42.626;23.320;2023-08-17T05:52:42;93260.53;;;26.92;41.73
39789;BME280;25478;42.626;23.320;2023-08-17T05:55:08;93250.72;;;26.95;41.39
39789;BME280;25478;42.626;23.320;2023-08-17T05:57:34;93246.22;;;27.07;40.88
39789;BME280;25478;42.626;23.320;2023-08-17T06:00:00;93263.28;;;27.18;40.68
39789;BME280;25478;42.626;23.320;2023-08-17T06:02:25;93259.22;;;27.29;40.43
39789;BME280;25478;42.626;23.320;2023-08-17T06:04:51;93270.56;;;27.33;40.27
39789;BME280;25478;42.626;23.320;2023-08-17T06:07:17;93275.97;;;27.33;40.85
39789;BME280;25478;42.626;23.320;2023-08-17T06:09:42;93268.66;;;27.39;41.00
39789;BME280;25478;42.626;23.320;2023-08-17T06:12:08;93272.91;;;27.45;40.80
39789;BME280;25478;42.626;23.320;2023-08-17T06:14:33;93277.47;;;27.34;41.05
39789;BME280;25478;42.626;23.320;2023-08-17T06:16:59;93272.41;;;27.21;41.25
39789;BME280;25478;42.626;23.320;2023-08-17T06:19:25;93270.69;;;27.24;41.41
39789;BME280;25478;42.626;23.320;2023-08-17T06:21:50;93274.38;;;27.20;41.53
39789;BME280;25478;42.626;23.320;2023-08-17T06:24:16;93274.03;;;27.13;42.06
39789;BME280;25478;42.626;23.320;2023-08-17T06:26:41;93267.47;;;27.19;42.37
39789;BME280;25478;42.626;23.320;2023-08-17T06:29:08;93267.25;;;27.23;42.66
39789;BME280;25478;42.626;23.320;2023-08-17T06:31:33;93279.63;;;27.30;42.60
39789;BME280;25478;42.626;23.320;2023-08-17T06:33:59;93286.78;;;27.33;42.83
39789;BME280;25478;42.626;23.320;2023-08-17T06:36:24;93269.78;;;27.27;43.49
39789;BME280;25478;42.626;23.320;2023-08-17T06:38:50;93265.75;;;27.16;43.52
39789;BME280;25478;42.626;23.320;2023-08-17T06:41:16;93279.34;;;27.28;43.50
39789;BME280;25478;42.626;23.320;2023-08-17T06:43:42;93286.78;;;27.33;43.98
39789;BME280;25478;42.626;23.320;2023-08-17T06:46:07;93281.41;;;27.38;43.36
39789;BME280;25478;42.626;23.320;2023-08-17T06:48:33;93283.22;;;27.47;43.92
39789;BME280;25478;42.626;23.320;2023-08-17T06:50:58;93282.72;;;27.43;44.55
39789;BME280;25478;42.626;23.320;2023-08-17T06:53:24;93286.56;;;27.36;44.96
39789;BME280;25478;42.626;23.320;2023-08-17T06:55:49;93285.19;;;27.46;44.38
39789;BME280;25478;42.626;23.320;2023-08-17T06:58:15;93285.44;;;27.48;43.91
39789;BME280;25478;42.626;23.320;2023-08-17T07:00:40;93281.97;;;27.42;44.06
39789;BME280;25478;42.626;23.320;2023-08-17T07:03:10;93284.25;;;27.49;44.37
39789;BME280;25478;42.626;23.320;2023-08-17T07:05:36;93265.78;;;27.48;44.64
39789;BME280;25478;42.626;23.320;2023-08-17T07:08:02;93288.66;;;27.73;44.25
39789;BME280;25478;42.626;23.320;2023-08-17T07:10:27;93281.28;;;27.73;43.86
39789;BME280;25478;42.626;23.320;2023-08-17T07:12:53;93287.75;;;27.82;43.25
39789;BME280;25478;42.626;23.320;2023-08-17T07:15:18;93265.59;;;27.77;42.66
39789;BME280;25478;42.626;23.320;2023-08-17T07:17:44;93289.16;;;28.03;42.59
39789;BME280;25478;42.626;23.320;2023-08-17T07:20:10;93277.84;;;28.04;42.31
39789;BME280;25478;42.626;23.320;2023-08-17T07:22:36;93284.22;;;28.01;42.09
39789;BME280;25478;42.626;23.320;2023-08-17T07:25:02;93277.59;;;28.08;42.48
39789;BME280;25478;42.626;23.320;2023-08-17T07:27:29;93280.53;;;28.04;42.45
39789;BME280;25478;42.626;23.320;2023-08-17T07:29:54;93277.34;;;28.06;42.10
39789;BME280;25478;42.626;23.320;2023-08-17T07:32:20;93279.63;;;28.13;42.16
39789;BME280;25478;42.626;23.320;2023-08-17T07:34:47;93270.81;;;28.18;41.84
39789;BME280;25478;42.626;23.320;2023-08-17T07:37:12;93277.78;;;28.30;40.44
39789;BME280;25478;42.626;23.320;2023-08-17T07:39:38;93256.84;;;28.25;41.05
39789;BME280;25478;42.626;23.320;2023-08-17T07:42:04;93264.78;;;28.35;40.35
39789;BME280;25478;42.626;23.320;2023-08-17T07:44:29;93278.34;;;28.40;40.50
39789;BME280;25478;42.626;23.320;2023-08-17T07:46:57;93273.41;;;28.39;40.10
39789;BME280;25478;42.626;23.320;2023-08-17T07:49:24;93277.09;;;28.36;40.38
39789;BME280;25478;42.626;23.320;2023-08-17T07:51:50;93279.69;;;28.24;39.96
39789;BME280;25478;42.626;23.320;2023-08-17T07:54:16;93271.00;;;28.15;40.26
39789;BME280;25478;42.626;23.320;2023-08-17T07:56:41;93274.88;;;28.02;40.56
39789;BME280;25478;42.626;23.320;2023-08-17T07:59:06;93262.72;;;27.87;41.00
39789;BME280;25478;42.626;23.320;2023-08-17T08:01:32;93271.00;;;27.77;41.17
39789;BME280;25478;42.626;23.320;2023-08-17T08:03:57;93274.34;;;27.67;42.01
39789;BME280;25478;42.626;23.320;2023-08-17T08:06:23;93266.59;;;27.54;42.17
39789;BME280;25478;42.626;23.320;2023-08-17T08:08:49;93266.59;;;27.54;42.68
39789;BME280;25478;42.626;23.320;2023-08-17T08:11:15;93269.34;;;27.60;42.35
39789;BME280;25478;42.626;23.320;2023-08-17T08:13:41;93275.25;;;27.58;42.24
39789;BME280;25478;42.626;23.320;2023-08-17T08:16:06;93263.72;;;27.63;42.32
39789;BME280;25478;42.626;23.320;2023-08-17T08:18:32;93268.38;;;27.63;43.04
39789;BME280;25478;42.626;23.320;2023-08-17T08:20:57;93266.53;;;27.74;43.23
39789;BME280;25478;42.626;23.320;2023-08-17T08:23:23;93261.72;;;27.90;42.93
39789;BME280;25478;42.626;23.320;2023-08-17T08:25:48;93264.19;;;27.88;43.21
39789;BME280;25478;42.626;23.320;2023-08-17T08:28:13;93263.97;;;27.91;43.79
39789;BME280;25478;42.626;23.320;2023-08-17T08:30:39;93264.31;;;28.04;43.92
39789;BME280;25478;42.626;23.320;2023-08-17T08:33:04;93269.50;;;28.08;41.98
39789;BME280;25478;42.626;23.320;2023-08-17T08:35:30;93260.59;;;28.02;42.33
39789;BME280;25478;42.626;23.320;2023-08-17T08:37:58;93260.06;;;27.98;42.96
39789;BME280;25478;42.626;23.320;2023-08-17T08:40:28;93258.34;;;27.95;43.34
39789;BME280;25478;42.626;23.320;2023-08-17T08:42:55;93262.78;;;27.98;43.32
39789;BME280;25478;42.626;23.320;2023-08-17T08:45:22;93265.19;;;27.90;44.01
39789;BME280;25478;42.626;23.320;2023-08-17T08:47:48;93255.75;;;27.80;44.04
39789;BME280;25478;42.626;23.320;2023-08-17T08:50:18;93258.78;;;27.88;44.37
39789;BME280;25478;42.626;23.320;2023-08-17T08:55:23;93257.00;;;27.79;43.34
39789;BME280;25478;42.626;23.320;2023-08-17T08:57:49;93255.81;;;27.60;43.61
39789;BME280;25478;42.626;23.320;2023-08-17T09:00:18;93237.81;;;27.51;44.05
39789;BME280;25478;42.626;23.320;2023-08-17T09:02:44;93256.56;;;27.60;44.08
39789;BME280;25478;42.626;23.320;2023-08-17T09:05:10;93243.53;;;27.59;44.05
39789;BME280;25478;42.626;23.320;2023-08-17T09:07:37;93243.56;;;27.64;44.22
39789;BME280;25478;42.626;23.320;2023-08-17T09:10:03;93242.91;;;27.69;43.72
39789;BME280;25478;42.626;23.320;2023-08-17T09:12:29;93243.72;;;27.81;43.48
39789;BME280;25478;42.626;23.320;2023-08-17T09:14:55;93239.59;;;27.86;42.76
39789;BME280;25478;42.626;23.320;2023-08-17T09:17:24;93233.22;;;27.89;42.48
39789;BME280;25478;42.626;23.320;2023-08-17T09:19:50;93218.16;;;27.82;42.67
39789;BME280;25478;42.626;23.320;2023-08-17T09:22:36;93232.25;;;27.92;42.91
39789;BME280;25478;42.626;23.320;2023-08-17T09:25:01;93232.94;;;27.87;43.15
39789;BME280;25478;42.626;23.320;2023-08-17T09:27:27;93234.44;;;27.88;42.47
39789;BME280;25478;42.626;23.320;2023-08-17T09:29:52;93230.25;;;27.87;42.91
39789;BME280;25478;42.626;23.320;2023-08-17T09:32:18;93226.38;;;27.93;43.07
39789;BME280;25478;42.626;23.320;2023-08-17T09:34:44;93221.72;;;27.99;42.94
39789;BME280;25478;42.626;23.320;2023-08-17T09:37:11;93207.72;;;28.01;42.21
39789;BME280;25478;42.626;23.320;2023-08-17T09:39:37;93217.88;;;28.12;41.48
39789;BME280;25478;42.626;23.320;2023-08-17T09:42:02;93213.25;;;28.18;41.45
39789;BME280;25478;42.626;23.320;2023-08-17T09:44:28;93200.94;;;28.22;41.01
39789;BME280;25478;42.626;23.320;2023-08-17T09:46:57;93212.38;;;28.38;40.43
39789;BME280;25478;42.626;23.320;2023-08-17T09:49:24;93200.31;;;28.39;39.94
39789;BME280;25478;42.626;23.320;2023-08-17T09:51:52;93207.75;;;28.44;39.74
39789;BME280;25478;42.626;23.320;2023-08-17T09:54:22;93195.72;;;28.50;39.77
39789;BME280;25478;42.626;23.320;2023-08-17T09:56:50;93189.56;;;28.55;39.19
39789;BME280;25478;42.626;23.320;2023-08-17T09:59:16;93193.78;;;28.62;39.12
39789;BME280;25478;42.626;23.320;2023-08-17T10:01:43;93199.69;;;28.66;38.30
39789;BME280;25478;42.626;23.320;2023-08-17T10:04:10;93201.69;;;28.71;38.09
39789;BME280;25478;42.626;23.320;2023-08-17T10:06:39;93198.03;;;28.80;37.74
39789;BME280;25478;42.626;23.320;2023-08-17T10:09:07;93165.50;;;28.69;38.08
39789;BME280;25478;42.626;23.320;2023-08-17T10:11:36;93146.53;;;28.74;38.14
39789;BME280;25478;42.626;23.320;2023-08-17T10:14:13;93195.66;;;29.15;36.86
39789;BME280;25478;42.626;23.320;2023-08-17T10:16:44;93192.94;;;29.15;36.57
39789;BME280;25478;42.626;23.320;2023-08-17T10:19:33;93191.50;;;29.20;37.02
39789;BME280;25478;42.626;23.320;2023-08-17T10:24:57;93165.13;;;29.09;35.69
39789;BME280;25478;42.626;23.320;2023-08-17T10:27:24;93178.19;;;29.22;36.34
39789;BME280;25478;42.626;23.320;2023-08-17T10:29:51;93172.03;;;29.33;36.35
39789;BME280;25478;42.626;23.320;2023-08-17T10:32:17;93186.09;;;29.48;36.28
39789;BME280;25478;42.626;23.320;2023-08-17T10:34:43;93178.94;;;29.45;36.65
39789;BME280;25478;42.626;23.320;2023-08-17T10:37:10;93168.84;;;29.51;36.36
39789;BME280;25478;42.626;23.320;2023-08-17T10:39:45;93188.81;;;29.65;35.91
39789;BME280;25478;42.626;23.320;2023-08-17T10:42:10;93184.63;;;29.64;34.85
39789;BME280;25478;42.626;23.320;2023-08-17T10:44:47;93174.03;;;29.66;34.52
39789;BME280;25478;42.626;23.320;2023-08-17T10:47:22;93176.50;;;29.58;34.93
39789;BME280;25478;42.626;23.320;2023-08-17T10:49:55;93162.22;;;29.52;34.39
39789;BME280;25478;42.626;23.320;2023-08-17T10:52:27;93175.97;;;29.49;34.92
39789;BME280;25478;42.626;23.320;2023-08-17T10:54:53;93168.84;;;29.57;35.22
39789;BME280;25478;42.626;23.320;2023-08-17T11:00:23;93147.66;;;29.50;35.09
39789;BME280;25478;42.626;23.320;2023-08-17T11:02:53;93162.41;;;29.49;35.00
39789;BME280;25478;42.626;23.320;2023-08-17T11:05:35;93170.81;;;29.51;34.82
39789;BME280;25478;42.626;23.320;2023-08-17T11:08:10;93122.75;;;29.29;34.86
39789;BME280;25478;42.626;23.320;2023-08-17T11:10:36;93148.91;;;29.60;34.73
39789;BME280;25478;42.626;23.320;2023-08-17T11:13:03;93158.75;;;29.68;34.09
39789;BME280;25478;42.626;23.320;2023-08-17T11:15:40;93153.31;;;29.46;34.14
39789;BME280;25478;42.626;23.320;2023-08-17T11:18:08;93158.94;;;29.26;34.54
39789;BME280;25478;42.626;23.320;2023-08-17T11:20:35;93138.00;;;29.21;35.53
39789;BME280;25478;42.626;23.320;2023-08-17T11:23:01;93157.50;;;29.30;34.98
39789;BME280;25478;42.626;23.320;2023-08-17T11:25:27;93156.03;;;29.35;35.50
39789;BME280;25478;42.626;23.320;2023-08-17T11:27:56;93156.25;;;29.31;35.07
39789;BME280;25478;42.626;23.320;2023-08-17T11:30:21;93155.50;;;29.25;35.13
39789;BME280;25478;42.626;23.320;2023-08-17T11:32:51;93155.03;;;29.32;35.04
39789;BME280;25478;42.626;23.320;2023-08-17T11:35:18;93148.13;;;29.37;35.15
39789;BME280;25478;42.626;23.320;2023-08-17T11:37:44;93156.75;;;29.41;35.50
39789;BME280;25478;42.626;23.320;2023-08-17T11:40:13;93138.75;;;29.32;35.10
39789;BME280;25478;42.626;23.320;2023-08-17T11:42:39;93128.16;;;29.17;35.16
39789;BME280;25478;42.626;23.320;2023-08-17T11:45:05;93138.03;;;29.26;34.73
39789;BME280;25478;42.626;23.320;2023-08-17T11:47:32;93146.16;;;29.43;35.06
39789;BME280;25478;42.626;23.320;2023-08-17T11:50:02;93119.03;;;29.49;34.98
39789;BME280;25478;42.626;23.320;2023-08-17T11:52:29;93117.78;;;29.66;34.85
39789;BME280;25478;42.626;23.320;2023-08-17T11:54:57;93131.06;;;30.04;35.97
39789;BME280;25478;42.626;23.320;2023-08-17T11:57:22;93129.56;;;30.19;36.55
39789;BME280;25478;42.626;23.320;2023-08-17T11:59:48;93146.59;;;30.20;36.99
39789;BME280;25478;42.626;23.320;2023-08-17T12:02:14;93134.75;;;30.00;36.52
39789;BME280;25478;42.626;23.320;2023-08-17T12:04:39;93119.75;;;29.88;37.22
39789;BME280;25478;42.626;23.320;2023-08-17T12:07:05;93133.78;;;29.92;36.67
39789;BME280;25478;42.626;23.320;2023-08-17T12:09:34;93126.16;;;29.85;36.92
39789;BME280;25478;42.626;23.320;2023-08-17T12:12:00;93135.03;;;29.91;36.55
39789;BME280;25478;42.626;23.320;2023-08-17T12:14:29;93128.88;;;29.85;36.96
39789;BME280;25478;42.626;23.320;2023-08-17T12:16:55;93133.34;;;29.77;37.53
39789;BME280;25478;42.626;23.320;2023-08-17T12:19:21;93117.09;;;29.60;37.22
39789;BME280;25478;42.626;23.320;2023-08-17T12:21:50;93123.50;;;29.63;37.50
39789;BME280;25478;42.626;23.320;2023-08-17T12:24:16;93125.47;;;29.57;37.04
39789;BME280;25478;42.626;23.320;2023-08-17T12:26:43;93126.69;;;29.56;37.59
39789;BME280;25478;42.626;23.320;2023-08-17T12:29:09;93123.25;;;29.55;37.81
39789;BME280;25478;42.626;23.320;2023-08-17T12:31:35;93128.91;;;29.63;37.83
39789;BME280;25478;42.626;23.320;2023-08-17T12:34:01;93122.72;;;29.79;37.96
39789;BME280;25478;42.626;23.320;2023-08-17T12:36:26;93121.72;;;29.88;37.90
39789;BME280;25478;42.626;23.320;2023-08-17T12:38:52;93127.88;;;29.94;38.34
39789;BME280;25478;42.626;23.320;2023-08-17T12:41:18;93128.63;;;29.89;37.91
39789;BME280;25478;42.626;23.320;2023-08-17T12:43:43;93130.34;;;29.81;38.41
39789;BME280;25478;42.626;23.320;2023-08-17T12:46:09;93121.25;;;29.73;38.58
39789;BME280;25478;42.626;23.320;2023-08-17T12:48:36;93132.84;;;29.73;39.01
39789;BME280;25478;42.626;23.320;2023-08-17T12:51:02;93121.00;;;29.70;38.64
39789;BME280;25478;42.626;23.320;2023-08-17T12:53:28;93134.78;;;29.84;38.63
39789;BME280;25478;42.626;23.320;2023-08-17T12:55:54;93125.91;;;29.89;38.27
39789;BME280;25478;42.626;23.320;2023-08-17T12:58:19;93133.03;;;29.97;39.02
39789;BME280;25478;42.626;23.320;2023-08-17T13:00:44;93128.34;;;30.04;38.75